Latest Weather Observations for Yanakie

IDV60801

Issued at 11:35 pm EST Tuesday 30 September 2014 (issued every 30 minutes, with the page automatically refreshed every 10 minutes)

About weather observations | Map of weather stations | Latest weather observations for VIC | Other Formats
Station Details ID: 085301 Name: YANAKIE Lat: -38.81 Lon: 146.19 Height: 13.3 m
Data from the previous 72 hours. | See also: Recent months at Yanakie
Date/Time
EST
Temp
°C
App
Temp
°C
Dew
Point
Rel
Hum
%
Delta-T
°C
Wind Press
QNH
hPa
Press
MSL
hPa
Rain
since 9 am
mm
Dir
 
Spd
km/h
Gust
km/h
Spd
kts
Gust
kts
30/11:30pm 8.4 1.4 6.2 86 1.0 W 32 43 17 23 1011.0 1011.0 7.6
30/11:00pm 7.6 -0.9 5.2 85 1.1 W 39 59 21 32 1011.1 1011.1 7.4
30/10:47pm 8.9 0.4 5.1 77 1.7 W 39 67 21 36 1011.2 1011.2 7.2
30/10:30pm 8.6 0.5 5.4 80 1.4 W 37 50 20 27 1010.6 1010.6 7.2
30/10:26pm 8.6 0.5 5.4 80 1.4 W 37 50 20 27 1010.6 1010.6 7.2
30/10:00pm 9.0 -2.7 5.2 77 1.7 W 56 76 30 41 1010.5 1010.5 7.2
30/09:59pm 9.3 -3.0 5.1 75 1.9 W 59 76 32 41 1010.4 1010.4 7.2
30/09:57pm 10.0 1.9 5.4 73 2.1 W 37 69 20 37 1010.4 1010.4 7.2
30/09:30pm 9.4 2.1 4.4 71 2.2 W 32 44 17 24 1010.0 1010.0 7.2
30/09:00pm 9.3 2.8 6.7 84 1.2 W 30 37 16 20 1009.5 1009.5 7.2
30/08:33pm 11.1 1.9 6.3 72 2.2 W 44 70 24 38 1009.3 1009.3 6.8
30/08:30pm 11.2 2.1 5.7 69 2.5 W 43 57 23 31 1009.0 1009.0 6.8
30/08:00pm 11.3 1.9 5.6 68 2.6 W 44 61 24 33 1008.7 1008.7 6.8
30/07:30pm 11.4 2.1 4.8 64 3.0 W 43 56 23 30 1008.2 1008.2 6.8
30/07:14pm 11.2 2.7 5.1 66 2.8 W 39 57 21 31 1008.1 1008.1 6.8
30/07:00pm 11.1 3.2 6.0 71 2.4 W 37 52 20 28 1007.8 1007.8 6.8
30/06:30pm 10.7 5.7 8.1 84 1.3 W 24 35 13 19 1007.5 1007.5 6.8
30/06:00pm 10.3 4.5 7.9 85 1.2 W 28 41 15 22 1007.3 1007.3 6.8
30/05:30pm 10.0 2.7 7.3 83 1.3 W 35 56 19 30 1006.2 1006.2 6.2
30/05:03pm 10.0 2.0 7.6 85 1.1 W 39 57 21 31 1005.6 1005.6 5.4
30/05:00pm 10.1 1.4 7.9 86 1.1 W 43 57 23 31 1005.6 1005.6 5.4
30/04:36pm 10.0 -1.0 8.3 89 0.8 WSW 56 76 30 41 1004.7 1004.7 4.8
30/04:30pm 10.1 0.3 8.5 90 0.8 WSW 50 59 27 32 1004.2 1004.2 4.6
30/04:00pm 11.3 -1.9 10.2 93 0.6 W 70 95 38 51 1002.8 1002.8 3.6
30/03:40pm 12.6 0.8 11.8 95 0.4 W 65 83 35 45 1002.0 1002.0 3.4
30/03:38pm 12.4 0.2 11.6 95 0.4 W 67 83 36 45 1001.9 1001.9 3.2
30/03:30pm 12.6 4.8 11.8 95 0.4 W 44 69 24 37 1001.8 1001.8 3.2
30/03:15pm 16.3 7.0 10.6 69 3.0 W 50 74 27 40 1001.3 1001.3 0.0
30/03:13pm 18.0 12.8 10.4 61 4.1 NW 28 48 15 26 1000.3 1000.3 0.0
30/03:00pm 17.6 11.8 10.7 64 3.7 NW 32 46 17 25 999.7 999.7 0.0
30/02:30pm 20.5 13.7 10.6 53 5.4 NW 37 54 20 29 999.9 999.9 0.0
30/02:00pm 21.1 13.4 10.3 50 5.9 NW 41 61 22 33 1000.4 1000.4 0.0
30/01:32pm 21.0 13.5 9.3 47 6.2 NW 39 61 21 33 1000.9 1000.9 0.0
30/01:30pm 21.3 14.5 10.8 51 5.8 NW 37 54 20 29 1001.2 1001.2 0.0
30/01:00pm 20.0 11.4 9.0 49 5.8 NW 44 76 24 41 1001.6 1001.6 0.0
30/12:30pm 21.3 13.7 10.5 50 5.9 NW 41 56 22 30 1002.2 1002.2 0.0
30/12:00pm 20.7 14.4 9.6 49 6.0 NW 33 48 18 26 1002.5 1002.5 0.0
30/11:30am 20.4 14.7 9.9 51 5.6 NNW 30 39 16 21 1003.5 1003.5 0.0
30/11:00am 19.9 14.0 10.3 54 5.2 NW 32 43 17 23 1004.3 1004.3 0.0
30/10:30am 19.1 13.1 10.9 59 4.5 NW 33 44 18 24 1005.1 1005.1 0.0
30/10:01am 18.1 12.2 10.5 61 4.1 NW 32 52 17 28 1005.8 1005.8 0.0
30/10:00am 18.3 12.8 10.7 61 4.1 NW 30 46 16 25 1005.9 1005.9 0.0
30/09:30am 17.5 13.0 11.3 67 3.4 NW 26 39 14 21 1006.6 1006.6 0.0
30/09:00am 16.6 13.2 11.3 71 2.9 NW 20 30 11 16 1007.1 1007.1 0.0
30/08:30am 15.8 12.8 11.8 77 2.2 NNW 19 26 10 14 1007.4 1007.4 0.0
30/08:00am 14.6 11.7 12.3 86 1.3 NNW 19 28 10 15 1007.8 1007.8 0.0
30/07:30am 13.1 12.1 12.2 94 0.5 WNW 9 17 5 9 1008.5 1008.5 0.0
30/07:00am 11.5 10.7 10.9 96 0.3 WSW 6 9 3 5 1008.6 1008.6 0.0
30/06:30am 9.4 9.1 8.8 96 0.3 CALM 0 2 0 1 1008.4 1008.4 0.0
30/06:00am 7.8 5.8 7.2 96 0.3 WNW 7 7 4 4 1008.2 1008.2 0.0
30/05:30am 7.6 6.1 6.9 95 0.3 NNW 4 6 2 3 1007.8 1007.8 0.0
30/05:00am 7.8 6.0 7.1 95 0.3 NNW 6 7 3 4 1007.8 1007.8 0.0
30/04:30am 9.0 7.3 8.2 95 0.4 N 7 11 4 6 1008.0 1008.0 0.0
30/04:00am 8.7 7.1 8.1 96 0.3 N 6 7 3 4 1008.1 1008.1 0.0
30/03:30am 8.2 7.2 7.4 95 0.4 N 2 4 1 2 1008.2 1008.2 0.0
30/03:00am 8.2 7.6 7.3 94 0.4 CALM 0 4 0 2 1008.7 1008.7 0.0
30/02:30am 9.2 8.4 8.3 94 0.4 WNW 2 4 1 2 1009.1 1009.1 0.0
30/02:00am 9.5 8.4 8.6 94 0.4 W 4 4 2 2 1009.6 1009.6 0.0
30/01:30am 9.8 8.4 8.7 93 0.5 W 6 9 3 5 1010.1 1010.1 0.0
30/01:00am 10.8 8.3 9.7 93 0.6 SW 13 15 7 8 1010.6 1010.6 0.0
30/12:30am 10.2 8.7 9.0 92 0.6 SW 7 11 4 6 1010.8 1010.8 0.0
30/12:00am 10.7 8.4 9.1 90 0.8 SW 11 15 6 8 1010.8 1010.8 0.0
 
Date/Time
EST
Temp
°C
App
Temp
°C
Dew
Point
Rel
Hum
%
Delta-T
°C
Wind Press
QNH
hPa
Press
MSL
hPa
Rain
since 9 am
mm
Dir
 
Spd
km/h
Gust
km/h
Spd
kts
Gust
kts
29/11:30pm 12.0 10.8 10.2 89 0.9 NE 7 9 4 5 1010.8 1010.8 0.0
29/11:00pm 12.3 10.5 10.7 90 0.8 NE 11 17 6 9 1010.9 1010.9 0.0
29/10:30pm 12.9 11.2 11.1 89 0.9 ENE 11 17 6 9 1011.1 1011.1 0.0
29/10:00pm 13.1 11.4 11.3 89 1.0 ENE 11 15 6 8 1011.4 1011.4 0.0
29/09:30pm 13.0 11.4 11.4 90 0.8 NNE 11 26 6 14 1011.7 1011.7 0.0
29/09:00pm 10.4 8.9 9.0 91 0.7 ENE 7 9 4 5 1011.8 1011.8 0.0
29/08:30pm 9.5 8.3 7.9 90 0.8 ENE 4 6 2 3 1011.8 1011.8 0.0
29/08:00pm 9.4 8.8 7.5 88 0.9 CALM 0 0 0 0 1011.7 1011.7 0.0
29/07:30pm 10.3 9.5 8.2 87 1.0 N 2 4 1 2 1011.6 1011.6 0.0
29/07:00pm 10.8 9.3 8.4 85 1.2 SW 6 7 3 4 1011.2 1011.2 0.0
29/06:30pm 11.9 9.9 8.7 81 1.6 SSW 9 11 5 6 1010.7 1010.7 0.0
29/06:00pm 14.0 12.8 9.6 75 2.3 S 6 7 3 4 1010.5 1010.5 0.0
29/05:30pm 16.0 14.0 10.1 68 3.1 WSW 11 13 6 7 1010.4 1010.4 0.0
29/05:00pm 16.9 13.7 10.1 64 3.6 W 17 22 9 12 1010.4 1010.4 0.0
29/04:30pm 17.3 13.6 9.5 60 4.1 WSW 19 24 10 13 1010.3 1010.3 0.0
29/04:00pm 17.8 14.3 10.2 61 4.0 WSW 19 26 10 14 1010.4 1010.4 0.0
29/03:30pm 18.1 14.2 10.7 62 4.0 WSW 22 28 12 15 1010.5 1010.5 0.0
29/03:00pm 18.7 14.4 10.8 60 4.3 W 24 32 13 17 1010.7 1010.7 0.0
29/02:30pm 18.8 14.2 9.8 56 4.8 WNW 24 35 13 19 1010.8 1010.8 0.0
29/02:00pm 18.6 14.0 9.7 56 4.7 WNW 24 37 13 20 1011.0 1011.0 0.0
29/01:30pm 18.2 12.7 9.0 55 4.8 WNW 28 39 15 21 1011.2 1011.2 0.0
29/01:00pm 18.2 13.6 9.8 58 4.4 WNW 24 39 13 21 1011.8 1011.8 0.0
29/12:30pm 18.0 11.9 9.6 58 4.4 NW 32 44 17 24 1011.9 1011.9 0.0
29/12:00pm 17.4 11.9 9.1 58 4.3 WNW 28 39 15 21 1012.1 1012.1 0.0
29/11:30am 17.0 11.4 8.7 58 4.3 WNW 28 39 15 21 1012.3 1012.3 0.0
29/11:00am 16.8 11.6 8.8 59 4.1 W 26 37 14 20 1012.5 1012.5 0.0
29/10:30am 16.1 11.4 9.3 64 3.5 WNW 24 32 13 17 1012.6 1012.6 0.0
29/10:00am 16.3 11.3 9.5 64 3.5 WNW 26 37 14 20 1012.5 1012.5 0.0
29/09:30am 15.8 10.0 9.5 66 3.3 W 30 41 16 22 1012.4 1012.4 0.0
29/09:00am 15.2 10.7 10.2 72 2.6 WNW 24 35 13 19 1012.5 1012.5 0.6
29/08:30am 14.0 9.3 9.4 74 2.4 WNW 24 35 13 19 1012.3 1012.3 0.6
29/08:00am 14.1 10.5 10.5 79 1.9 WNW 20 30 11 16 1012.0 1012.0 0.6
29/07:30am 12.8 9.7 10.2 84 1.3 W 17 24 9 13 1011.9 1011.9 0.6
29/07:00am 13.2 10.4 10.0 81 1.6 WNW 15 20 8 11 1011.5 1011.5 0.6
29/06:30am 12.4 8.6 9.2 81 1.6 WNW 19 26 10 14 1011.0 1011.0 0.6
29/06:00am 12.6 7.5 9.2 80 1.7 WNW 26 39 14 21 1010.4 1010.4 0.6
29/05:30am 12.3 7.5 8.8 79 1.7 WNW 24 30 13 16 1009.8 1009.8 0.6
29/05:00am 11.9 7.4 8.4 79 1.7 NW 22 33 12 18 1009.4 1009.4 0.6
29/04:30am 12.3 8.2 8.6 78 1.8 NW 20 30 11 16 1008.9 1008.9 0.6
29/04:00am 11.8 7.2 8.3 79 1.7 NW 22 32 12 17 1008.7 1008.7 0.6
29/03:30am 11.7 7.6 8.7 82 1.5 WNW 20 26 11 14 1008.3 1008.3 0.6
29/03:00am 12.1 8.4 9.3 83 1.4 NW 19 28 10 15 1007.9 1007.9 0.6
29/02:30am 12.8 9.1 10.2 84 1.3 WNW 20 28 11 15 1008.2 1008.2 0.6
29/02:00am 12.8 10.1 10.5 86 1.2 WNW 15 22 8 12 1008.1 1008.1 0.4
29/01:30am 13.4 10.9 11.1 86 1.2 WNW 15 22 8 12 1008.2 1008.2 0.4
29/01:00am 13.4 10.3 11.5 88 1.0 W 19 24 10 13 1007.9 1007.9 0.4
29/12:30am 13.7 12.4 11.2 85 1.3 W 9 13 5 7 1007.0 1007.0 0.0
29/12:00am 13.8 12.0 11.0 83 1.5 W 11 17 6 9 1007.1 1007.1 0.0
 
Date/Time
EST
Temp
°C
App
Temp
°C
Dew
Point
Rel
Hum
%
Delta-T
°C
Wind Press
QNH
hPa
Press
MSL
hPa
Rain
since 9 am
mm
Dir
 
Spd
km/h
Gust
km/h
Spd
kts
Gust
kts
28/11:30pm 14.5 12.1 11.3 81 1.7 W 15 22 8 12 1006.9 1006.9 0.0
28/11:00pm 14.8 13.2 11.4 80 1.8 W 11 15 6 8 1006.1 1006.1 0.0
28/10:30pm 15.0 12.3 11.6 80 1.8 WSW 17 20 9 11 1005.6 1005.6 0.0
28/10:00pm 15.2 12.3 11.0 76 2.2 WSW 17 22 9 12 1005.4 1005.4 0.0
28/09:30pm 15.5 13.6 10.5 72 2.6 W 11 15 6 8 1005.3 1005.3 0.0
28/09:28pm 15.8 13.9 10.6 71 2.8 WSW 11 15 6 8 1005.2 1005.2 0.0
28/09:00pm 20.9 17.1 9.8 49 6.0 WNW 20 30 11 16 1004.8 1004.8 0.0
28/08:30pm 19.9 17.4 11.1 57 4.8 NW 15 19 8 10 1004.5 1004.5 0.0
28/08:00pm 21.2 18.1 10.4 50 5.9 NNW 17 26 9 14 1003.7 1003.7 0.0
28/07:30pm 20.9 17.5 10.4 51 5.7 N 19 24 10 13 1002.9 1002.9 0.0
28/07:00pm 20.3 17.4 11.0 55 5.1 N 17 22 9 12 1002.9 1002.9 0.0
28/06:30pm 21.7 17.7 10.5 49 6.1 N 22 30 12 16 1002.9 1002.9 0.0
28/06:00pm 21.8 17.4 10.3 48 6.3 N 24 32 13 17 1003.3 1003.3 0.0
28/05:30pm 23.1 18.1 9.5 42 7.4 N 26 37 14 20 1002.9 1002.9 0.0
28/05:00pm 24.5 18.5 8.5 36 8.6 NNW 30 46 16 25 1003.0 1003.0 0.0
28/04:30pm 24.4 16.8 7.5 34 8.9 NNW 37 56 20 30 1003.7 1003.7 0.0
28/04:00pm 24.5 18.0 8.9 37 8.4 NNW 33 61 18 33 1003.6 1003.6 0.0
28/03:46pm 24.5 16.8 8.5 36 8.6 NNW 39 59 21 32 1003.6 1003.6 0.0
28/03:30pm 24.6 17.4 9.0 37 8.4 NNW 37 50 20 27 1003.7 1003.7 0.0
28/03:17pm 24.2 18.6 10.1 41 7.8 NNW 30 50 16 27 1003.8 1003.8 0.0
28/03:00pm 25.3 19.3 10.7 40 8.2 NNW 33 46 18 25 1004.2 1004.2 0.0
28/02:30pm 25.4 17.7 10.1 38 8.5 NW 41 63 22 34 1005.1 1005.1 0.0
28/02:13pm 25.6 18.9 9.8 37 8.7 NW 35 54 19 29 1005.4 1005.4 0.0
28/02:00pm 26.0 19.1 10.2 37 8.8 NNW 37 54 20 29 1005.7 1005.7 0.0
28/01:38pm 25.9 19.6 9.7 36 8.9 NNW 33 54 18 29 1006.0 1006.0 0.0
28/01:30pm 26.2 20.2 10.0 36 9.0 NNW 32 46 17 25 1006.2 1006.2 0.0
28/01:17pm 25.9 21.3 12.4 43 7.8 NNW 28 46 15 25 1006.2 1006.2 0.0
28/01:00pm 25.5 19.5 10.1 38 8.6 NNW 32 46 17 25 1006.5 1006.5 0.0
28/12:30pm 25.6 19.1 10.2 38 8.5 N 35 56 19 30 1006.0 1006.0 0.0
28/12:17pm 25.0 17.6 9.7 38 8.4 N 39 57 21 31 1005.9 1005.9 0.0
28/12:00pm 25.2 17.7 9.5 37 8.6 N 39 57 21 31 1006.2 1006.2 0.0
28/11:30am 24.7 17.7 9.8 39 8.2 N 37 57 20 31 1006.8 1006.8 0.0
28/11:04am 24.2 18.2 10.1 41 7.8 N 32 54 17 29 1007.8 1007.8 0.0
28/11:00am 24.2 18.9 11.2 44 7.3 N 30 48 16 26 1008.0 1008.0 0.0
28/10:30am 23.3 17.7 11.4 47 6.7 N 32 46 17 25 1009.5 1009.5 0.0
28/10:00am 23.1 17.3 11.5 48 6.5 N 33 56 18 30 1010.1 1010.1 0.0
28/09:32am 22.4 17.1 11.2 49 6.2 N 30 48 16 26 1010.6 1010.6 0.0
28/09:30am 22.4 16.6 10.9 48 6.4 N 32 48 17 26 1010.6 1010.6 0.0
28/09:00am 21.7 15.9 10.8 50 6.0 N 32 41 17 22 1011.0 1011.0 0.2
28/08:30am 20.9 15.2 11.0 53 5.4 N 32 44 17 24 1011.0 1011.0 0.2
28/08:00am 20.5 14.4 9.7 50 5.8 N 32 50 17 27 1011.0 1011.0 0.2
28/07:30am 20.0 14.2 9.6 51 5.5 NNW 30 43 16 23 1011.0 1011.0 0.2
28/07:20am 20.0 14.2 9.3 50 5.7 NNW 30 48 16 26 1011.0 1011.0 0.2
28/07:00am 19.5 13.2 9.1 51 5.5 NNW 32 48 17 26 1011.0 1011.0 0.2
28/06:30am 19.2 12.7 8.8 51 5.4 NNW 33 46 18 25 1011.1 1011.1 0.2
28/06:00am 18.9 12.0 8.8 52 5.3 NNW 35 52 19 28 1011.1 1011.1 0.2
28/05:54am 19.1 12.5 8.7 51 5.4 NNW 33 52 18 28 1011.0 1011.0 0.2
28/05:30am 18.5 12.2 9.0 54 5.0 NNW 32 48 17 26 1011.1 1011.1 0.2
28/05:00am 18.4 12.5 9.2 55 4.8 NNW 30 39 16 21 1011.0 1011.0 0.2
28/04:30am 17.9 14.2 9.5 58 4.4 NNW 19 30 10 16 1011.1 1011.1 0.2
28/04:00am 16.0 14.5 9.2 64 3.5 NNE 7 11 4 6 1011.6 1011.6 0.2
28/03:30am 16.9 15.5 9.6 62 3.8 NNE 7 11 4 6 1011.8 1011.8 0.2
28/03:00am 17.7 15.6 9.6 59 4.3 N 11 20 6 11 1012.2 1012.2 0.2
28/02:30am 17.8 14.7 10.2 61 4.0 N 17 30 9 16 1012.5 1012.5 0.2
28/02:00am 16.6 14.0 10.7 68 3.1 N 15 20 8 11 1012.9 1012.9 0.2
28/01:30am 13.9 12.6 11.1 83 1.5 NE 9 13 5 7 1013.3 1013.3 0.2
28/01:00am 13.5 11.9 11.4 87 1.1 ENE 11 15 6 8 1013.8 1013.8 0.2
28/12:30am 13.2 12.0 11.6 90 0.9 ENE 9 13 5 7 1014.2 1014.2 0.2
28/12:00am 13.1 11.9 11.7 91 0.7 ENE 9 15 5 8 1014.6 1014.6 0.2

Other Formats:

Comma delimited format used in spreadsheet applications
http://www.bom.gov.au/fwo/IDV60801/IDV60801.94911.axf

JavaScript Object Notation format (JSON) in row-major order
http://www.bom.gov.au/fwo/IDV60801/IDV60801.94911.json